createdAt,value
2023-01-30T05:07:22.217Z,-6.37
2023-01-30T05:10:27.115Z,-6.44
2023-01-30T05:13:43.430Z,-6.43
2023-01-30T05:16:46.585Z,-6.40
2023-01-30T05:19:50.355Z,-6.22
2023-01-30T05:22:54.031Z,-6.23
2023-01-30T05:25:58.054Z,-6.26
2023-01-30T05:29:03.164Z,-6.28
2023-01-30T05:32:06.238Z,-6.27
2023-01-30T05:35:09.436Z,-6.27
2023-01-30T05:38:12.047Z,-6.26
2023-01-30T05:41:16.652Z,-6.24
2023-01-30T05:44:19.641Z,-6.22
2023-01-30T05:47:22.617Z,-6.19
2023-01-30T05:50:25.241Z,-6.16
2023-01-30T05:53:31.452Z,-6.13
2023-01-30T05:56:34.253Z,-6.09
2023-01-30T05:59:37.695Z,-6.02
2023-01-30T06:02:40.276Z,-5.99
2023-01-30T06:05:43.134Z,-5.97
2023-01-30T06:08:46.359Z,-5.89
2023-01-30T06:11:49.210Z,-5.87
2023-01-30T06:14:52.054Z,-5.82
2023-01-30T06:17:55.318Z,-5.73
2023-01-30T06:20:57.962Z,-5.72
2023-01-30T06:24:03.415Z,-5.70
2023-01-30T06:27:05.980Z,-5.60
2023-01-30T06:30:09.658Z,-5.49
2023-01-30T06:33:12.419Z,-5.48
2023-01-30T06:36:18.420Z,-5.42
2023-01-30T06:39:25.277Z,-5.26
2023-01-30T06:42:28.192Z,-4.78
2023-01-30T06:45:30.975Z,-4.66
2023-01-30T06:48:33.996Z,-4.70
2023-01-30T06:51:36.658Z,-4.67
2023-01-30T06:54:39.636Z,-4.47
2023-01-30T06:57:43.515Z,-4.23
2023-01-30T07:00:49.011Z,-4.02
2023-01-30T07:03:57.668Z,-3.95
2023-01-30T07:07:02.488Z,-3.96
2023-01-30T07:10:08.841Z,-3.68
2023-01-30T07:13:12.669Z,-3.62
2023-01-30T07:16:15.284Z,-3.52
2023-01-30T07:19:18.187Z,-3.37
2023-01-30T07:22:20.764Z,-3.31
2023-01-30T07:25:26.242Z,-3.06
2023-01-30T07:28:29.157Z,-2.93
2023-01-30T07:31:32.917Z,-2.89
2023-01-30T07:34:35.851Z,-2.85
2023-01-30T07:37:41.532Z,-2.84
2023-01-30T07:40:44.170Z,-2.66
2023-01-30T07:43:49.307Z,-2.44
2023-01-30T07:46:52.010Z,-2.20
2023-01-30T07:49:54.966Z,-2.06
2023-01-30T07:52:57.839Z,-2.06
2023-01-30T07:56:05.978Z,-1.92
2023-01-30T07:59:11.460Z,-1.80
2023-01-30T08:02:14.584Z,-1.56
2023-01-30T08:05:17.707Z,-1.54
2023-01-30T08:08:20.462Z,-1.32
2023-01-30T08:11:23.507Z,-1.28
2023-01-30T08:14:28.784Z,-1.17
2023-01-30T08:17:31.590Z,-0.84
2023-01-30T08:20:34.482Z,-1.14
2023-01-30T08:23:37.577Z,-1.04
2023-01-30T08:26:40.542Z,-0.75
2023-01-30T08:29:44.879Z,-0.53
2023-01-30T08:32:48.211Z,-0.36
2023-01-30T08:35:51.379Z,-0.18
2023-01-30T08:38:54.017Z,-0.15
2023-01-30T08:41:56.945Z,-0.12
2023-01-30T08:44:59.503Z,0.03
2023-01-30T08:48:05.194Z,0.04
2023-01-30T08:51:07.840Z,0.18
2023-01-30T08:54:10.971Z,0.08
2023-01-30T08:57:14.929Z,0.15
2023-01-30T09:00:18.910Z,0.02
2023-01-30T09:03:21.734Z,0.33
2023-01-30T09:06:26.286Z,0.37
2023-01-30T09:09:30.239Z,0.40
2023-01-30T09:12:33.203Z,0.50
2023-01-30T09:15:38.051Z,0.58
2023-01-30T09:18:42.925Z,0.35
2023-01-30T09:21:45.574Z,0.35
2023-01-30T09:24:49.116Z,0.56
2023-01-30T09:27:51.891Z,0.64
2023-01-30T09:30:58.488Z,0.59
2023-01-30T09:34:01.378Z,0.75
2023-01-30T09:37:05.139Z,0.85
2023-01-30T09:40:16.144Z,0.64
2023-01-30T09:43:31.104Z,0.59
2023-01-30T09:46:39.672Z,0.53
2023-01-30T09:49:54.436Z,0.54
2023-01-30T09:53:23.965Z,0.37
2023-01-30T09:56:26.887Z,0.46
2023-01-30T09:59:38.852Z,0.43
2023-01-30T10:02:52.255Z,0.20
2023-01-30T10:06:00.873Z,0.27
2023-01-30T10:09:27.383Z,0.28
2023-01-30T10:13:01.341Z,0.83
2023-01-30T10:16:15.922Z,1.13
2023-01-30T10:19:40.372Z,1.36
2023-01-30T10:23:02.320Z,1.65
2023-01-30T10:26:15.586Z,1.77
2023-01-30T10:29:33.405Z,1.81
2023-01-30T10:32:46.445Z,1.92
2023-01-30T10:36:04.584Z,1.78
2023-01-30T10:39:22.745Z,1.93
2023-01-30T10:42:37.575Z,1.97
2023-01-30T10:45:54.531Z,2.01
2023-01-30T10:49:11.585Z,2.02
2023-01-30T10:52:36.063Z,1.88
2023-01-30T10:55:50.985Z,1.78
2023-01-30T10:59:32.681Z,1.67
2023-01-30T11:02:53.185Z,1.59
2023-01-30T11:06:11.750Z,1.74
2023-01-30T11:09:14.354Z,1.71
2023-01-30T11:12:17.248Z,1.74
2023-01-30T11:15:24.785Z,1.52
2023-01-30T11:19:17.312Z,1.34
2023-01-30T11:22:00.049Z,1.21
2023-01-30T11:25:14.911Z,1.39
2023-01-30T11:28:19.532Z,1.25
2023-01-30T11:31:40.265Z,1.21
2023-01-30T11:34:44.547Z,1.24
2023-01-30T11:37:48.073Z,1.12
2023-01-30T11:41:02.244Z,1.28
2023-01-30T11:44:05.736Z,1.37
2023-01-30T11:47:13.843Z,1.40
2023-01-30T11:50:30.780Z,1.43
2023-01-30T11:53:51.061Z,1.30
2023-01-30T11:56:58.839Z,1.37
2023-01-30T12:00:01.783Z,1.15
2023-01-30T12:03:18.217Z,1.32
2023-01-30T12:06:29.969Z,1.15
2023-01-30T12:09:35.835Z,1.24
2023-01-30T12:12:50.290Z,1.40
2023-01-30T12:16:04.396Z,1.37
2023-01-30T12:19:36.685Z,1.35
2023-01-30T12:22:49.721Z,1.29
2023-01-30T12:26:04.894Z,1.24
2023-01-30T12:29:19.753Z,1.19
2023-01-30T12:32:27.264Z,1.00
2023-01-30T12:35:59.853Z,0.93
2023-01-30T12:39:32.124Z,0.85
2023-01-30T12:43:00.697Z,1.12
2023-01-30T12:46:20.589Z,0.97
2023-01-30T12:49:52.506Z,0.87
2023-01-30T12:52:58.513Z,1.01
2023-01-30T12:56:12.126Z,1.00
2023-01-30T12:59:22.243Z,1.02
2023-01-30T13:02:26.463Z,1.20
2023-01-30T13:05:44.947Z,1.10
2023-01-30T13:09:15.752Z,1.10
2023-01-30T13:12:46.187Z,0.96
2023-01-30T13:15:49.350Z,1.18
2023-01-30T13:19:01.614Z,1.03
2023-01-30T13:22:17.563Z,1.03
2023-01-30T13:25:46.462Z,0.97
2023-01-30T13:28:57.502Z,0.79
2023-01-30T13:32:05.284Z,0.72
2023-01-30T13:35:35.595Z,0.72
2023-01-30T13:38:49.579Z,0.85
2023-01-30T13:41:56.580Z,0.90
2023-01-30T13:45:02.071Z,1.10
2023-01-30T13:48:26.667Z,1.08
2023-01-30T13:51:39.380Z,1.11
2023-01-30T13:55:05.074Z,1.29
2023-01-30T13:58:17.858Z,1.35
2023-01-30T14:01:23.079Z,1.44
2023-01-30T14:04:41.358Z,1.48
2023-01-30T14:07:45.250Z,1.57
2023-01-30T14:10:49.879Z,1.44
2023-01-30T14:13:55.663Z,1.55
2023-01-30T14:17:18.005Z,1.60
2023-01-30T14:20:21.450Z,1.69
2023-01-30T14:23:34.923Z,1.69
2023-01-30T14:26:55.543Z,1.57
2023-01-30T14:29:59.002Z,1.71
2023-01-30T14:33:15.813Z,1.53
2023-01-30T14:36:35.317Z,1.61
2023-01-30T14:39:40.334Z,1.51
2023-01-30T14:42:45.340Z,1.38
2023-01-30T14:45:52.694Z,1.38
2023-01-30T14:49:16.259Z,1.14
2023-01-30T14:52:40.656Z,1.28
2023-01-30T14:55:43.644Z,1.19
2023-01-30T14:59:02.801Z,1.01
2023-01-30T15:02:15.115Z,0.93
2023-01-30T15:05:40.494Z,0.89
2023-01-30T15:08:44.706Z,0.97
2023-01-30T15:11:58.998Z,0.82
2023-01-30T15:15:19.909Z,0.91
2023-01-30T15:26:21.668Z,0.90
2023-01-30T15:29:55.946Z,0.89
2023-01-30T15:33:29.342Z,0.92
2023-01-30T15:36:38.825Z,0.96
2023-01-30T15:39:41.381Z,0.97
2023-01-30T15:42:52.231Z,0.92
2023-01-30T15:46:21.314Z,0.87
2023-01-30T15:49:24.257Z,0.78
2023-01-30T15:52:44.906Z,0.62
2023-01-30T15:55:47.956Z,0.55
2023-01-30T15:58:51.420Z,0.56
2023-01-30T16:02:01.370Z,0.46
2023-01-30T16:05:04.776Z,0.49
2023-01-30T16:08:22.363Z,0.29
2023-01-30T16:11:38.821Z,0.40
2023-01-30T16:14:41.548Z,0.37
2023-01-30T16:17:55.286Z,0.42
2023-01-30T16:21:03.152Z,0.36
2023-01-30T16:24:19.507Z,0.35
2023-01-30T16:27:37.182Z,0.28
